INDIA METEOROLOGICAL DEPARTMENT, R.M.C. NEW DELHI
Dated:6 - 3 - 2021
METARS OF ALTERNATE AIRPORTS
Delhi      
VIDP 052200Z 23005KT 3000 HZ NSC 18/13 Q1011 NOSIG=
Lucknow    
VILK 052200Z 27005KT 3500 HZ NSC 17/13 Q1009 NOSIG=
Jaipur     
VIJP 052200Z VRB02KT 2500 HZ NSC 18/01 Q1012 NOSIG=
Ahmedabad  
VAAH 052200Z 00000KT 3500 FU NSC 21/10 Q1010 NOSIG=
Mumbai     
VABB 052200Z 00000KT 2500 BR NSC 26/24 Q1011 NOSIG=